This is the latest recevied weather packets stored in our database for station/object KN4MGS. If no packets are shown the sender has not sent any weather packets the latest 10 day(s).
| Time | Temp. | Humidity | Pressure | Rain* | Wind** | Luminosity | Snow |
|---|---|---|---|---|---|---|---|
| 1777589256 | 23.33° C | 49% | 1013.4 hPa | 0 mm | - | 152 W/m² | - |
| 1777588953 | 22.78° C | 50% | 1013.3 hPa | 0 mm | - | 137 W/m² | - |
| 1777588649 | 22.78° C | 53% | 1013 hPa | 0 mm | - | 87 W/m² | - |
| 1777588344 | 23.33° C | 53% | 1013 hPa | 0 mm | - | 98 W/m² | - |
| 1777588040 | 23.33° C | 52% | 1013.1 hPa | 0 mm | - | 87 W/m² | - |
| 1777587736 | 23.33° C | 51% | 1012.9 hPa | 0 mm | - | 144 W/m² | - |
| 1777587430 | 23.89° C | 52% | 1012.8 hPa | 0 mm | - | 153 W/m² | - |
| 1777587127 | 23.89° C | 54% | 1012.8 hPa | 0 mm | - | 200 W/m² | - |
| 1777586823 | 24.44° C | 55% | 1012.5 hPa | 0 mm | - | 209 W/m² | - |
| 1777586518 | 24.44° C | 57% | 1012.4 hPa | 0 mm | - | 304 W/m² | - |
| 1777586213 | 23.89° C | 57% | 1012.5 hPa | 0 mm | - | 279 W/m² | - |
| 1777585912 | 23.89° C | 57% | 1012.5 hPa | 0 mm | - | 178 W/m² | - |
| 1777585606 | 23.33° C | 56% | 1012.3 hPa | 0 mm | - | 171 W/m² | - |
| 1777585302 | 23.89° C | 55% | 1012.6 hPa | 0 mm | - | 141 W/m² | - |
| 1777584996 | 23.89° C | 56% | 1012.4 hPa | 0 mm | - | 313 W/m² | - |
| 1777584693 | 23.89° C | 53% | 1012.4 hPa | 0 mm | - | 137 W/m² | - |
| 1777584390 | 23.89° C | 52% | 1012.6 hPa | 0 mm | - | 152 W/m² | - |
| 1777584087 | 25° C | 50% | 1012.3 hPa | 0 mm | - | 143 W/m² | - |
| 1777583786 | 26.11° C | 46% | 1012.5 hPa | 0 mm | - | 131 W/m² | - |
| 1777583481 | 26.11° C | 50% | 1012.5 hPa | 0 mm | - | 439 W/m² | - |
| 1777583175 | 26.11° C | 50% | 1012.6 hPa | 0 mm | - | 490 W/m² | - |
| 1777582871 | 24.44° C | 54% | 1012.5 hPa | 0 mm | - | 509 W/m² | - |
| 1777582569 | 24.44° C | 50% | 1012.4 hPa | 0 mm | - | 168 W/m² | - |
| 1777582263 | 24.44° C | 53% | 1012.4 hPa | 0 mm | - | 152 W/m² | - |
| 1777581961 | 24.44° C | 51% | 1012.5 hPa | 0 mm | - | 246 W/m² | - |
* Rain latest hour (hover to see other rain measurements)
** Current wind speed in m/s (hover to see current wind gust speed)